Time;durP1;ratioP1;P1;durP2;ratioP2;P2;SDS_P1;SDS_P2;PMS_P1;PMS_P2;Temp;Humidity;BMP_temperature;BMP_pressure;BME280_temperature;BME280_humidity;BME280_pressure;Samples;Min_cycle;Max_cycle;Signal;HPM_P1;HPM_P2
2021/04/21 00:00:36;;;;;;;43.03;26.83;;;9.00;99.90;;;;;;5031962;28;20062;-84
2021/04/21 00:03:04;;;;;;;41.17;29.15;;;9.00;99.90;;;;;;5005807;28;20060;-84
2021/04/21 00:05:31;;;;;;;40.45;27.02;;;9.00;99.90;;;;;;4999399;28;20084;-85
2021/04/21 00:07:57;;;;;;;40.38;26.83;;;8.90;99.90;;;;;;4995450;28;20494;-84
2021/04/21 00:10:26;;;;;;;37.33;27.50;;;8.90;99.90;;;;;;4993067;28;20108;-84
2021/04/21 00:12:53;;;;;;;40.65;29.27;;;8.90;99.90;;;;;;5014491;28;20049;-85
2021/04/21 00:15:22;;;;;;;38.67;26.52;;;8.90;99.90;;;;;;5012052;28;20061;-83
2021/04/21 00:17:53;;;;;;;46.83;28.35;;;8.80;99.90;;;;;;5013068;28;20168;-84
2021/04/21 00:20:22;;;;;;;40.65;27.52;;;8.80;99.90;;;;;;5008136;28;20053;-84
2021/04/21 00:22:55;;;;;;;44.38;29.10;;;8.80;99.90;;;;;;5011790;28;20450;-83
2021/04/21 00:25:22;;;;;;;45.83;29.50;;;8.70;99.90;;;;;;5009142;28;20417;-84
2021/04/21 00:27:53;;;;;;;41.53;28.70;;;8.70;99.90;;;;;;5012288;28;20057;-84
2021/04/21 00:30:27;;;;;;;41.38;30.40;;;8.70;99.90;;;;;;5012708;28;20097;-84
2021/04/21 00:32:55;;;;;;;47.10;30.63;;;8.60;99.90;;;;;;5012510;28;20134;-84
2021/04/21 00:35:34;;;;;;;41.40;29.17;;;8.60;99.90;;;;;;5012937;28;20111;-83
2021/04/21 00:38:03;;;;;;;42.53;28.20;;;8.60;99.90;;;;;;5011921;28;20109;-84
2021/04/21 00:40:53;;;;;;;44.40;28.17;;;8.60;99.90;;;;;;5014145;28;20049;-84
2021/04/21 00:43:22;;;;;;;49.22;31.38;;;8.50;99.90;;;;;;5021579;28;20053;-84
2021/04/21 00:45:57;;;;;;;48.83;30.85;;;8.50;99.90;;;;;;5026589;28;20057;-84
2021/04/21 00:48:49;;;;;;;45.42;30.35;;;8.50;99.90;;;;;;5025577;28;20049;-84
2021/04/21 00:51:25;;;;;;;45.08;31.35;;;8.40;99.90;;;;;;5025640;28;20046;-85
2021/04/21 00:54:08;;;;;;;48.08;30.45;;;8.40;99.90;;;;;;5010833;28;20092;-84
2021/04/21 00:57:09;;;;;;;47.75;30.73;;;8.30;99.90;;;;;;5006985;28;20049;-84
2021/04/21 01:00:03;;;;;;;46.72;30.85;;;8.30;99.90;;;;;;4983310;28;20064;-84
2021/04/21 01:02:48;;;;;;;45.53;31.92;;;8.30;99.90;;;;;;5025771;28;20065;-84
2021/04/21 01:05:17;;;;;;;48.15;33.30;;;8.20;99.90;;;;;;5009688;28;20042;-86
2021/04/21 01:07:46;;;;;;;49.33;32.55;;;8.20;99.90;;;;;;5010334;28;20557;-84
2021/04/21 01:10:15;;;;;;;47.17;31.35;;;8.20;99.90;;;;;;5010488;28;20109;-84
2021/04/21 01:12:46;;;;;;;53.83;33.20;;;8.10;99.90;;;;;;5012022;28;20069;-85
2021/04/21 01:15:14;;;;;;;48.42;34.35;;;8.10;99.90;;;;;;5024098;28;20066;-85
2021/04/21 01:17:43;;;;;;;48.00;33.65;;;8.10;99.90;;;;;;5009055;28;20049;-85
2021/04/21 01:20:17;;;;;;;54.28;33.20;;;8.10;99.90;;;;;;5012463;28;20053;-84
2021/04/21 01:23:14;;;;;;;46.55;32.25;;;8.00;99.90;;;;;;5025735;28;20042;-85
2021/04/21 01:26:13;;;;;;;49.75;34.22;;;8.00;99.90;;;;;;5028030;28;20127;-85
2021/04/21 01:28:43;;;;;;;49.28;34.38;;;7.90;99.90;;;;;;5007365;28;20086;-83
2021/04/21 01:31:13;;;;;;;54.47;33.58;;;7.90;99.90;;;;;;5009756;28;20132;-84
2021/04/21 01:33:44;;;;;;;55.25;34.03;;;7.90;99.90;;;;;;5009199;28;20062;-84
2021/04/21 01:36:15;;;;;;;55.35;33.97;;;7.90;99.90;;;;;;5026328;28;20140;-83
2021/04/21 01:38:44;;;;;;;56.03;35.63;;;7.90;99.90;;;;;;5025401;28;20489;-84
2021/04/21 01:41:21;;;;;;;52.63;33.63;;;7.80;99.90;;;;;;5009457;28;20057;-85
2021/04/21 01:44:02;;;;;;;51.85;35.38;;;7.80;99.90;;;;;;5026688;28;20109;-85
2021/04/21 01:46:31;;;;;;;60.20;35.42;;;7.80;99.90;;;;;;5008568;28;20076;-85
2021/04/21 01:49:07;;;;;;;50.75;35.17;;;7.80;99.90;;;;;;5003539;28;20057;-85
2021/04/21 01:51:38;;;;;;;56.53;36.25;;;7.70;99.90;;;;;;5008193;28;20114;-84
2021/04/21 01:54:15;;;;;;;53.08;35.20;;;7.70;99.90;;;;;;5010989;28;20060;-85
2021/04/21 01:56:47;;;;;;;53.17;36.10;;;7.70;99.90;;;;;;5012261;28;20053;-85
2021/04/21 01:59:28;;;;;;;60.70;36.78;;;7.70;99.90;;;;;;5023701;28;20073;-85
2021/04/21 02:01:57;;;;;;;61.83;37.20;;;7.60;99.90;;;;;;5023304;28;20046;-85
2021/04/21 02:04:51;;;;;;;59.60;35.60;;;7.60;99.90;;;;;;5026298;28;20490;-85
2021/04/21 02:07:35;;;;;;;60.88;36.95;;;7.60;99.90;;;;;;5027442;28;20472;-85
2021/04/21 02:10:29;;;;;;;;;;;7.60;99.90;;;;;;5007149;28;20117;-85
2021/04/21 02:13:04;;;;;;;54.85;36.03;;;7.60;99.90;;;;;;5023420;28;19929;-85
2021/04/21 02:16:02;;;;;;;63.97;37.50;;;7.50;99.90;;;;;;5025321;28;20045;-85
2021/04/21 02:18:56;;;;;;;55.60;36.05;;;7.50;99.90;;;;;;5010531;28;20049;-85
2021/04/21 02:21:37;;;;;;;63.28;38.00;;;7.50;99.90;;;;;;5025757;28;20078;-84
2021/04/21 02:24:34;;;;;;;61.35;38.35;;;7.50;99.90;;;;;;5009429;28;20560;-85
2021/04/21 02:27:33;;;;;;;57.40;37.45;;;7.50;99.90;;;;;;5025347;28;20375;-84
2021/04/21 02:30:13;;;;;;;60.75;38.17;;;7.40;99.90;;;;;;5023587;28;20478;-85
2021/04/21 02:33:13;;;;;;;66.88;39.30;;;7.40;99.90;;;;;;5026065;28;20073;-85
2021/04/21 02:35:45;;;;;;;65.97;38.72;;;7.40;99.90;;;;;;4993187;28;20500;-85
2021/04/21 02:38:25;;;;;;;63.38;38.42;;;7.40;99.90;;;;;;5006729;28;20105;-85
2021/04/21 02:41:00;;;;;;;62.63;38.88;;;7.30;99.90;;;;;;5010053;28;20069;-85
2021/04/21 02:43:48;;;;;;;63.92;39.00;;;7.30;99.90;;;;;;5010173;28;20038;-85
2021/04/21 02:46:26;;;;;;;61.45;38.83;;;7.30;99.90;;;;;;5016585;28;20504;-84
2021/04/21 02:49:18;;;;;;;65.53;39.58;;;7.30;99.90;;;;;;5025636;28;20038;-84
2021/04/21 02:52:04;;;;;;;65.53;41.10;;;7.20;99.90;;;;;;5027638;28;20088;-85
2021/04/21 02:54:49;;;;;;;63.80;41.63;;;7.20;99.90;;;;;;5025898;28;20136;-84
2021/04/21 02:57:32;;;;;;;62.90;40.97;;;7.20;99.90;;;;;;5026620;28;20054;-84
2021/04/21 03:00:13;;;;;;;65.97;40.35;;;7.20;99.90;;;;;;5007831;28;20050;-84
2021/04/21 03:03:04;;;;;;;63.85;41.42;;;7.20;99.90;;;;;;5006855;28;20057;-85
2021/04/21 03:05:33;;;;;;;68.45;41.65;;;7.20;99.90;;;;;;4970941;28;20080;-85
2021/04/21 03:08:04;;;;;;;66.18;42.50;;;7.10;99.90;;;;;;5002096;28;20089;-85
2021/04/21 03:10:38;;;;;;;63.42;40.92;;;7.10;99.90;;;;;;5025202;28;20074;-85
2021/04/21 03:13:09;;;;;;;;;;;7.10;99.90;;;;;;5009161;28;20129;-85
2021/04/21 03:15:40;;;;;;;66.38;40.10;;;7.10;99.90;;;;;;5009870;28;19972;-85
2021/04/21 03:18:08;;;;;;;68.20;40.55;;;7.00;99.90;;;;;;5022923;28;20076;-85
2021/04/21 03:20:38;;;;;;;66.82;42.53;;;7.00;99.90;;;;;;5009048;28;20077;-84
2021/04/21 03:23:07;;;;;;;73.15;41.63;;;7.00;99.90;;;;;;5011476;28;20050;-85
2021/04/21 03:25:39;;;;;;;66.95;40.75;;;7.00;99.90;;;;;;5022571;28;20053;-85
2021/04/21 03:28:12;;;;;;;70.43;42.28;;;7.00;99.90;;;;;;5024778;28;20409;-84
2021/04/21 03:30:42;;;;;;;70.10;40.37;;;7.00;99.90;;;;;;5026569;28;20188;-85
2021/04/21 03:33:17;;;;;;;63.95;40.22;;;7.00;99.90;;;;;;5010200;28;20420;-85
2021/04/21 03:35:50;;;;;;;66.53;40.67;;;7.00;99.90;;;;;;5001059;28;20058;-83
2021/04/21 03:38:17;;;;;;;62.85;40.95;;;6.90;99.90;;;;;;5023240;28;20085;-85
2021/04/21 03:40:44;;;;;;;66.68;40.63;;;6.90;99.90;;;;;;5008610;28;20050;-85
2021/04/21 03:43:11;;;;;;;67.50;41.08;;;6.90;99.90;;;;;;5009745;28;20555;-85
2021/04/21 03:45:44;;;;;;;66.50;42.78;;;6.90;99.90;;;;;;5010205;28;20050;-85
2021/04/21 03:48:11;;;;;;;73.55;43.10;;;6.90;99.90;;;;;;5010763;28;20489;-84
2021/04/21 03:50:38;;;;;;;72.00;41.40;;;6.80;99.90;;;;;;5030231;28;20056;-84
2021/04/21 03:53:12;;;;;;;71.32;42.08;;;6.90;99.90;;;;;;5004598;28;20120;-84
2021/04/21 03:55:40;;;;;;;65.63;41.88;;;6.80;99.90;;;;;;5017973;28;20080;-84
2021/04/21 03:58:11;;;;;;;64.60;39.97;;;6.80;99.90;;;;;;5008177;28;20034;-84
2021/04/21 04:00:42;;;;;;;62.00;40.35;;;6.80;99.90;;;;;;5013489;28;20069;-84
2021/04/21 04:03:11;;;;;;;69.22;41.03;;;6.80;99.90;;;;;;5013296;28;20470;-84
2021/04/21 04:06:07;;;;;;;67.75;40.70;;;6.80;99.90;;;;;;5010718;28;20049;-84
2021/04/21 04:08:56;;;;;;;67.13;39.95;;;6.80;99.90;;;;;;5011180;28;20049;-84
2021/04/21 04:11:31;;;;;;;69.65;40.22;;;6.70;99.90;;;;;;5028471;28;20046;-84
2021/04/21 04:14:16;;;;;;;68.72;41.13;;;6.70;99.90;;;;;;5011627;28;20424;-84
2021/04/21 04:16:44;;;;;;;63.70;40.03;;;6.70;99.90;;;;;;5009007;28;20145;-84
2021/04/21 04:19:11;;;;;;;67.38;40.42;;;6.70;99.90;;;;;;5004496;28;20108;-85
2021/04/21 04:21:40;;;;;;;60.90;39.90;;;6.70;99.90;;;;;;5008669;28;20058;-83
2021/04/21 04:24:10;;;;;;;63.67;39.35;;;6.60;99.90;;;;;;5027173;28;20153;-85
2021/04/21 04:26:40;;;;;;;61.17;37.38;;;6.60;99.90;;;;;;5016252;28;20172;-84
2021/04/21 04:29:06;;;;;;;64.70;40.78;;;6.60;99.90;;;;;;5009637;28;20073;-84
2021/04/21 04:31:35;;;;;;;64.97;38.33;;;6.60;99.90;;;;;;5008171;28;20519;-84
2021/04/21 04:34:04;;;;;;;68.18;40.17;;;6.60;99.90;;;;;;5010533;28;20053;-84
2021/04/21 04:36:40;;;;;;;62.63;40.35;;;6.60;99.90;;;;;;5010384;28;20457;-84
2021/04/21 04:39:09;;;;;;;64.15;38.28;;;6.50;99.90;;;;;;5011683;28;20050;-84
2021/04/21 04:41:39;;;;;;;68.10;39.65;;;6.50;99.90;;;;;;5010515;28;20062;-84
2021/04/21 04:44:07;;;;;;;59.67;38.30;;;6.50;99.90;;;;;;5008518;28;20057;-84
2021/04/21 04:46:44;;;;;;;66.28;39.78;;;6.50;99.90;;;;;;5009571;28;20147;-85
2021/04/21 04:49:15;;;;;;;71.72;41.20;;;6.40;99.90;;;;;;5008700;28;20631;-84
2021/04/21 04:51:46;;;;;;;63.05;39.50;;;6.40;99.90;;;;;;5010146;28;20076;-85
2021/04/21 04:54:16;;;;;;;61.70;37.88;;;6.30;99.90;;;;;;5022268;28;20054;-86
2021/04/21 04:56:45;;;;;;;68.85;38.20;;;6.30;99.90;;;;;;5024337;28;20082;-86
2021/04/21 04:59:13;;;;;;;58.85;37.63;;;6.30;99.90;;;;;;5008944;28;20058;-84
2021/04/21 05:01:46;;;;;;;60.45;39.30;;;6.20;99.90;;;;;;5012844;28;20057;-85
2021/04/21 05:04:16;;;;;;;70.88;41.40;;;6.20;99.90;;;;;;5023981;28;20038;-85
2021/04/21 05:06:51;;;;;;;69.70;41.70;;;6.20;99.90;;;;;;5009391;28;20077;-85
2021/04/21 05:09:19;;;;;;;66.15;39.65;;;6.20;99.90;;;;;;5008416;28;20069;-83
2021/04/21 05:11:46;;;;;;;67.47;39.95;;;6.20;99.90;;;;;;5010161;28;20528;-83
2021/04/21 05:14:17;;;;;;;64.88;39.38;;;6.20;99.90;;;;;;5011695;28;20054;-84
2021/04/21 05:16:56;;;;;;;65.32;39.13;;;6.20;99.90;;;;;;5010782;28;20046;-84
2021/04/21 05:19:59;;;;;;;66.97;39.55;;;6.30;99.90;;;;;;5010971;28;20053;-85
2021/04/21 05:22:45;;;;;;;62.78;38.35;;;6.30;99.90;;;;;;5027124;28;20111;-85
2021/04/21 05:25:50;;;;;;;61.55;38.35;;;6.20;99.90;;;;;;5024087;28;20042;-83
2021/04/21 05:28:25;;;;;;;64.05;38.28;;;6.20;99.90;;;;;;5000160;28;20058;-84
2021/04/21 05:31:11;;;;;;;62.42;38.53;;;6.30;99.90;;;;;;5027454;28;20045;-84
2021/04/21 05:34:15;;;;;;;57.92;35.35;;;6.30;99.90;;;;;;5011445;28;20468;-84
2021/04/21 05:37:23;;;;;;;58.28;37.55;;;6.40;99.90;;;;;;5002299;28;20060;-84
2021/04/21 05:39:58;;;;;;;68.88;36.85;;;6.40;99.90;;;;;;4985890;28;20497;-84
2021/04/21 05:43:06;;;;;;;62.05;35.72;;;6.50;99.90;;;;;;5027317;28;20462;-86
2021/04/21 05:45:56;;;;;;;56.90;35.25;;;6.60;99.90;;;;;;5010192;28;20049;-85
2021/04/21 05:48:43;;;;;;;55.30;37.33;;;6.70;99.90;;;;;;5012676;28;20049;-85
2021/04/21 05:51:44;;;;;;;56.42;35.55;;;6.80;99.90;;;;;;5011596;28;20049;-85
2021/04/21 05:54:32;;;;;;;55.55;36.28;;;6.90;99.90;;;;;;5022291;28;20137;-85
2021/04/21 05:57:24;;;;;;;59.35;37.30;;;7.00;99.90;;;;;;5024445;28;20053;-85
2021/04/21 05:59:59;;;;;;;52.70;34.50;;;7.10;99.90;;;;;;5017321;28;20721;-85
2021/04/21 06:02:28;;;;;;;54.38;31.88;;;7.30;99.90;;;;;;5021183;28;20057;-85
2021/04/21 06:05:15;;;;;;;52.05;31.20;;;7.50;99.90;;;;;;5005226;28;20078;-86
2021/04/21 06:07:43;;;;;;;41.97;28.17;;;7.70;99.90;;;;;;4996340;28;20103;-86
2021/04/21 06:10:19;;;;;;;44.33;27.92;;;8.00;99.90;;;;;;5012661;28;20226;-86
2021/04/21 06:12:47;;;;;;;38.35;26.17;;;8.40;99.90;;;;;;5003261;28;20054;-86
2021/04/21 06:15:21;;;;;;;35.75;24.98;;;8.70;99.90;;;;;;5002219;28;20049;-85
2021/04/21 06:17:55;;;;;;;34.15;23.20;;;9.00;99.90;;;;;;5009481;28;20049;-86
2021/04/21 06:20:41;;;;;;;27.73;20.70;;;9.40;99.90;;;;;;5005629;28;20105;-86
2021/04/21 06:23:12;;;;;;;28.50;20.17;;;9.70;99.90;;;;;;5017360;28;20399;-86
2021/04/21 06:25:42;;;;;;;27.95;19.77;;;9.90;99.90;;;;;;5021107;28;20049;-85
2021/04/21 06:28:17;;;;;;;27.88;18.85;;;10.20;99.90;;;;;;5005039;28;20449;-84
2021/04/21 06:30:48;;;;;;;25.38;18.33;;;10.40;99.90;;;;;;4995135;28;20465;-85
2021/04/21 06:33:16;;;;;;;25.70;17.52;;;10.70;99.90;;;;;;4999783;28;20064;-85
2021/04/21 06:35:43;;;;;;;26.73;17.75;;;10.90;99.90;;;;;;5000459;28;20454;-85
2021/04/21 06:38:11;;;;;;;23.90;17.13;;;11.20;99.90;;;;;;5002731;28;20128;-85
2021/04/21 06:40:40;;;;;;;27.60;16.65;;;11.30;99.90;;;;;;5003189;28;20173;-86
2021/04/21 06:43:09;;;;;;;24.05;17.13;;;11.40;99.90;;;;;;5010492;28;20113;-86
2021/04/21 06:45:37;;;;;;;24.60;17.27;;;11.30;99.90;;;;;;5025197;28;20140;-86
2021/04/21 06:48:15;;;;;;;22.35;17.10;;;11.40;99.90;;;;;;4991747;28;20049;-86
2021/04/21 06:50:48;;;;;;;24.58;16.75;;;11.40;99.90;;;;;;4991544;28;20057;-86
2021/04/21 06:53:15;;;;;;;23.70;16.58;;;11.30;99.90;;;;;;4996020;28;20075;-86
2021/04/21 06:55:54;;;;;;;25.05;17.33;;;11.40;99.90;;;;;;5014015;28;20070;-86
2021/04/21 06:58:22;;;;;;;23.05;16.75;;;11.40;99.90;;;;;;5017480;28;20046;-86
2021/04/21 07:00:48;;;;;;;26.73;17.25;;;11.40;99.90;;;;;;4999112;28;20077;-86
2021/04/21 07:03:21;;;;;;;27.98;17.70;;;11.40;99.90;;;;;;5004292;28;20042;-86
2021/04/21 07:05:52;;;;;;;27.40;19.42;;;11.40;99.90;;;;;;5016688;28;20557;-86
2021/04/21 07:08:27;;;;;;;31.20;21.55;;;11.40;99.90;;;;;;5005876;28;20550;-86
2021/04/21 07:10:55;;;;;;;28.80;21.45;;;11.40;99.90;;;;;;5019411;28;20481;-86
2021/04/21 07:13:30;;;;;;;35.10;23.23;;;11.40;99.90;;;;;;5013431;28;20051;-86
2021/04/21 07:16:05;;;;;;;33.33;24.58;;;11.40;99.90;;;;;;4996571;28;20045;-86
2021/04/21 07:18:42;;;;;;;35.67;25.08;;;11.50;99.90;;;;;;4980442;28;20083;-86
2021/04/21 07:21:11;;;;;;;39.72;25.20;;;11.50;99.90;;;;;;4981486;28;20057;-86
2021/04/21 07:23:39;;;;;;;37.55;24.70;;;11.60;99.90;;;;;;5000818;28;20054;-86
2021/04/21 07:26:13;;;;;;;32.97;23.50;;;11.70;99.90;;;;;;4996348;28;20062;-85
2021/04/21 07:28:41;;;;;;;36.92;26.27;;;11.70;99.90;;;;;;5024688;28;20045;-85
2021/04/21 07:31:17;;;;;;;38.25;25.05;;;11.80;99.90;;;;;;5011595;28;20057;-85
2021/04/21 07:33:46;;;;;;;35.15;24.25;;;12.00;99.90;;;;;;5011016;28;20623;-85
2021/04/21 07:36:12;;;;;;;42.28;27.02;;;12.10;99.90;;;;;;5006348;28;20062;-85
2021/04/21 07:38:45;;;;;;;36.95;26.83;;;12.20;99.90;;;;;;5016933;28;20050;-85
2021/04/21 07:41:17;;;;;;;35.83;25.08;;;12.20;99.90;;;;;;5007074;28;20084;-85
2021/04/21 07:43:46;;;;;;;41.20;27.50;;;12.30;99.90;;;;;;4995803;28;20112;-85
2021/04/21 07:46:20;;;;;;;40.15;26.98;;;12.30;99.90;;;;;;5009343;28;20054;-85
2021/04/21 07:48:48;;;;;;;44.92;26.38;;;12.40;99.90;;;;;;5024548;28;20061;-85
2021/04/21 07:51:16;;;;;;;45.03;28.60;;;12.50;99.90;;;;;;4990845;28;20055;-85
2021/04/21 07:54:03;;;;;;;42.13;27.80;;;12.50;99.90;;;;;;5004082;28;20144;-85
2021/04/21 07:56:57;;;;;;;44.38;28.08;;;12.60;99.90;;;;;;5019550;28;20062;-86
2021/04/21 07:59:29;;;;;;;40.45;26.88;;;12.80;99.90;;;;;;4995367;28;20497;-86
2021/04/21 08:02:02;;;;;;;38.88;24.92;;;13.20;99.90;;;;;;5026287;28;20378;-85
2021/04/21 08:04:29;;;;;;;39.28;24.13;;;13.50;99.90;;;;;;5007991;28;20103;-86
2021/04/21 08:07:00;;;;;;;39.70;25.13;;;13.60;99.90;;;;;;5023498;28;20066;-86
2021/04/21 08:09:35;;;;;;;40.35;24.77;;;13.60;99.90;;;;;;5008746;28;20029;-86
2021/04/21 08:12:13;;;;;;;38.80;24.55;;;13.70;99.90;;;;;;5006907;28;20042;-85
2021/04/21 08:14:45;;;;;;;37.97;21.55;;;13.80;99.90;;;;;;5002553;28;20064;-86
2021/04/21 08:17:14;;;;;;;38.28;22.98;;;13.90;99.90;;;;;;5001632;28;20061;-86
2021/04/21 08:19:44;;;;;;;44.17;22.23;;;14.10;99.90;;;;;;4980312;28;20159;-85
2021/04/21 08:22:10;;;;;;;42.08;23.10;;;14.20;99.90;;;;;;5024061;28;20150;-85
2021/04/21 08:24:43;;;;;;;44.05;22.90;;;14.20;99.90;;;;;;5002796;28;20073;-85
2021/04/21 08:27:15;;;;;;;34.10;20.33;;;14.10;99.90;;;;;;5007794;28;20054;-86
2021/04/21 08:29:43;;;;;;;39.45;21.33;;;14.00;99.90;;;;;;5009858;28;20053;-86
2021/04/21 08:32:15;;;;;;;37.75;20.80;;;14.00;99.90;;;;;;5007788;28;20080;-86
2021/04/21 08:34:43;;;;;;;33.33;19.55;;;14.10;99.90;;;;;;5019705;28;20057;-85
2021/04/21 08:37:09;;;;;;;40.53;21.85;;;14.10;99.90;;;;;;5009210;28;20125;-86
2021/04/21 08:39:37;;;;;;;32.17;18.38;;;14.00;99.90;;;;;;5016623;28;20058;-85
2021/04/21 08:42:06;;;;;;;34.75;20.33;;;13.80;99.90;;;;;;5022207;28;20144;-85
2021/04/21 08:44:40;;;;;;;38.17;18.23;;;13.80;99.90;;;;;;5018291;28;20040;-85
2021/04/21 08:47:08;;;;;;;33.80;18.77;;;13.70;99.90;;;;;;5037832;28;20046;-85
2021/04/21 08:49:36;;;;;;;34.92;19.00;;;13.70;99.90;;;;;;5020566;28;20084;-85
2021/04/21 08:52:04;;;;;;;34.28;18.45;;;13.50;99.90;;;;;;5021267;28;20053;-85
2021/04/21 08:54:32;;;;;;;30.30;16.63;;;13.50;99.90;;;;;;5031324;28;20062;-86
2021/04/21 08:57:00;;;;;;;30.88;17.48;;;13.70;99.90;;;;;;5015494;28;20050;-85
2021/04/21 08:59:27;;;;;;;32.00;18.25;;;13.90;99.90;;;;;;5027354;28;20049;-85
2021/04/21 09:01:53;;;;;;;29.35;16.38;;;14.00;99.90;;;;;;5025535;28;20057;-86
2021/04/21 09:04:20;;;;;;;32.20;17.55;;;14.10;99.90;;;;;;5005950;28;20057;-85
2021/04/21 09:06:48;;;;;;;32.20;17.35;;;14.10;99.90;;;;;;5010728;28;20121;-85
2021/04/21 09:09:16;;;;;;;32.88;18.52;;;14.20;99.90;;;;;;5007138;28;20749;-85
2021/04/21 09:11:43;;;;;;;28.92;17.40;;;14.30;99.90;;;;;;5026631;28;20049;-85
2021/04/21 09:14:10;;;;;;;30.20;18.17;;;14.30;99.90;;;;;;5007699;28;20054;-85
2021/04/21 09:16:37;;;;;;;32.17;19.42;;;14.30;99.90;;;;;;5006067;28;20165;-85
2021/04/21 09:19:15;;;;;;;33.50;18.60;;;14.40;99.90;;;;;;5004397;28;20095;-85
2021/04/21 09:21:42;;;;;;;33.03;18.17;;;14.50;99.90;;;;;;5004304;28;20050;-85
2021/04/21 09:24:25;;;;;;;35.70;17.50;;;14.70;99.90;;;;;;5021275;28;20077;-85
2021/04/21 09:26:52;;;;;;;34.08;19.13;;;14.70;99.90;;;;;;5003648;28;20433;-85
2021/04/21 09:29:32;;;;;;;34.33;19.77;;;14.70;99.90;;;;;;5004340;28;20080;-85
2021/04/21 09:32:06;;;;;;;38.97;21.13;;;14.70;99.90;;;;;;5021667;28;20057;-85
2021/04/21 09:34:56;;;;;;;36.80;20.20;;;14.60;99.90;;;;;;5010856;28;20516;-86
2021/04/21 09:37:26;;;;;;;36.75;19.23;;;14.60;99.90;;;;;;5006324;28;20056;-86
2021/04/21 09:39:52;;;;;;;33.28;20.33;;;14.60;99.90;;;;;;5005305;28;20049;-86
2021/04/21 09:42:26;;;;;;;33.15;19.70;;;14.70;99.90;;;;;;5004965;28;20145;-86
2021/04/21 09:44:53;;;;;;;29.73;17.88;;;14.60;99.90;;;;;;5021553;28;20131;-86
2021/04/21 09:47:22;;;;;;;33.67;19.45;;;14.60;99.90;;;;;;5013107;28;20050;-86
2021/04/21 09:49:55;;;;;;;26.67;17.65;;;14.50;99.90;;;;;;5001362;28;20234;-86
2021/04/21 09:52:21;;;;;;;34.15;19.35;;;14.50;99.90;;;;;;5004215;28;20050;-85
2021/04/21 09:54:49;;;;;;;28.42;15.35;;;14.40;99.90;;;;;;5020836;28;20053;-86
2021/04/21 09:57:34;;;;;;;20.95;14.50;;;14.40;99.90;;;;;;5003813;28;20648;-85
2021/04/21 10:00:05;;;;;;;30.70;16.63;;;14.50;99.90;;;;;;4999473;28;22621;-86
2021/04/21 10:02:39;;;;;;;27.30;15.45;;;14.50;99.90;;;;;;5004088;28;20077;-85
2021/04/21 10:05:26;;;;;;;29.80;15.23;;;14.50;99.90;;;;;;5006042;28;20077;-85
2021/04/21 10:08:16;;;;;;;27.45;16.23;;;14.20;99.90;;;;;;5020797;28;20141;-85
2021/04/21 10:10:57;;;;;;;29.15;15.57;;;14.00;99.90;;;;;;5024066;28;20489;-84
2021/04/21 10:13:23;;;;;;;25.00;15.27;;;13.90;99.90;;;;;;5023305;28;20182;-85
2021/04/21 10:16:07;;;;;;;22.63;14.32;;;13.80;99.90;;;;;;5006442;28;20049;-85
2021/04/21 10:18:34;;;;;;;22.13;13.38;;;13.70;99.90;;;;;;5021948;28;20109;-85
2021/04/21 10:21:02;;;;;;;23.27;13.15;;;13.80;99.90;;;;;;5003857;28;20056;-85
2021/04/21 10:23:30;;;;;;;22.15;11.30;;;14.00;99.90;;;;;;5000411;28;20487;-85
2021/04/21 10:26:01;;;;;;;16.08;10.32;;;14.30;99.90;;;;;;5006244;28;20054;-85
2021/04/21 10:28:28;;;;;;;14.95;10.15;;;14.60;99.90;;;;;;4999790;28;20054;-84
2021/04/21 10:30:55;;;;;;;18.88;10.10;;;14.70;99.90;;;;;;5003964;28;20662;-85
2021/04/21 10:33:21;;;;;;;15.88;7.28;;;14.80;99.90;;;;;;5003401;28;20116;-85
2021/04/21 10:35:48;;;;;;;10.30;6.25;;;14.90;99.90;;;;;;5005742;28;20115;-85
2021/04/21 10:38:16;;;;;;;11.02;5.40;;;14.90;99.90;;;;;;5003654;28;20078;-85
2021/04/21 10:40:43;;;;;;;5.45;4.10;;;15.10;99.90;;;;;;5021583;28;20060;-86
2021/04/21 10:43:09;;;;;;;5.03;3.25;;;15.30;98.80;;;;;;5003137;28;20075;-85
2021/04/21 10:45:47;;;;;;;5.95;3.33;;;15.40;97.60;;;;;;5009076;28;20053;-86
2021/04/21 10:48:40;;;;;;;6.57;2.78;;;15.60;96.00;;;;;;5022115;28;20046;-85
2021/04/21 10:51:38;;;;;;;3.95;2.30;;;15.70;94.40;;;;;;5001901;28;20046;-85
2021/04/21 10:54:08;;;;;;;3.15;2.20;;;15.70;93.80;;;;;;5013485;28;20072;-85
2021/04/21 10:56:36;;;;;;;5.03;2.17;;;15.60;93.40;;;;;;5009805;28;20072;-84
2021/04/21 10:59:04;;;;;;;5.07;2.28;;;15.40;93.80;;;;;;5000213;28;20049;-86
2021/04/21 11:01:39;;;;;;;8.00;2.40;;;15.20;94.20;;;;;;5003371;28;20064;-85
2021/04/21 11:04:07;;;;;;;5.57;1.90;;;15.10;94.60;;;;;;5010586;28;20080;-85
2021/04/21 11:06:39;;;;;;;4.22;2.10;;;15.00;94.30;;;;;;5005400;28;20061;-85
2021/04/21 11:09:07;;;;;;;5.25;1.85;;;15.00;93.20;;;;;;5010718;28;20147;-86
2021/04/21 11:11:47;;;;;;;4.88;1.95;;;14.90;93.10;;;;;;4999525;28;20061;-85
2021/04/21 11:14:37;;;;;;;2.33;1.88;;;14.80;93.60;;;;;;5002212;28;20188;-85
2021/04/21 11:17:07;;;;;;;4.07;1.80;;;15.10;93.70;;;;;;5019674;28;20049;-85
2021/04/21 11:19:45;;;;;;;4.82;2.30;;;15.40;93.00;;;;;;5019709;28;20057;-85
2021/04/21 11:22:20;;;;;;;6.18;2.17;;;15.50;90.80;;;;;;5019580;28;20054;-85
2021/04/21 11:25:25;;;;;;;3.47;2.40;;;15.40;90.40;;;;;;5005020;28;20114;-85
2021/04/21 11:27:52;;;;;;;2.85;1.77;;;15.20;90.80;;;;;;5004375;28;20053;-85
2021/04/21 11:30:34;;;;;;;8.52;2.22;;;15.10;90.60;;;;;;5021096;28;20494;-86
2021/04/21 11:33:00;;;;;;;8.30;2.33;;;15.00;90.70;;;;;;5004916;28;20068;-85
2021/04/21 11:35:31;;;;;;;5.93;1.83;;;15.00;90.60;;;;;;5009118;28;20054;-86
2021/04/21 11:37:58;;;;;;;12.45;2.13;;;15.10;90.30;;;;;;5020137;28;20417;-85
2021/04/21 11:40:32;;;;;;;4.70;1.50;;;15.50;90.30;;;;;;5001354;28;20159;-85
2021/04/21 11:43:15;;;;;;;1.98;1.27;;;15.90;82.50;;;;;;5023551;28;20077;-85
2021/04/21 11:45:43;;;;;;;10.75;1.30;;;16.10;84.00;;;;;;5012855;28;20611;-85
2021/04/21 11:48:09;;;;;;;12.45;1.70;;;16.50;80.60;;;;;;5017603;28;20115;-85
2021/04/21 11:50:41;;;;;;;7.07;1.23;;;16.70;79.10;;;;;;5005775;28;20073;-85
2021/04/21 11:53:08;;;;;;;6.22;1.48;;;16.90;74.50;;;;;;5021267;28;20100;-85
2021/04/21 11:55:54;;;;;;;7.60;1.45;;;16.70;76.00;;;;;;4998273;28;20635;-85
2021/04/21 11:58:30;;;;;;;11.60;1.92;;;16.60;77.20;;;;;;5011183;28;20057;-86
2021/04/21 12:01:02;;;;;;;7.13;1.60;;;16.80;78.40;;;;;;4972522;28;20057;-85
2021/04/21 12:03:30;;;;;;;6.53;1.75;;;17.50;74.20;;;;;;5016824;28;20129;-86
2021/04/21 12:05:58;;;;;;;5.40;1.63;;;17.60;70.20;;;;;;5001444;28;20053;-85
2021/04/21 12:08:26;;;;;;;12.02;2.15;;;17.50;70.20;;;;;;5012918;28;20077;-86
2021/04/21 12:11:03;;;;;;;9.25;2.33;;;17.40;71.60;;;;;;5000159;28;20049;-86
2021/04/21 12:13:43;;;;;;;6.15;1.50;;;17.20;69.20;;;;;;5001328;28;20088;-86
2021/04/21 12:16:20;;;;;;;7.38;2.25;;;17.30;69.30;;;;;;5010911;28;20402;-85
2021/04/21 12:18:52;;;;;;;13.32;2.08;;;17.50;70.70;;;;;;5023302;28;20050;-85
2021/04/21 12:21:24;;;;;;;;;;;17.90;67.20;;;;;;5008746;28;20072;-85
2021/04/21 12:23:53;;;;;;;11.05;2.67;;;18.00;67.40;;;;;;5009149;28;19964;-84
2021/04/21 12:26:31;;;;;;;10.70;2.05;;;17.80;68.80;;;;;;5011144;28;20120;-85
2021/04/21 12:29:10;;;;;;;9.85;2.65;;;18.20;69.00;;;;;;5022656;28;20066;-85
2021/04/21 12:31:37;;;;;;;13.60;2.83;;;18.40;66.00;;;;;;5013011;28;20054;-85
2021/04/21 12:34:06;;;;;;;7.75;2.33;;;18.40;63.30;;;;;;5010898;28;20068;-85
2021/04/21 12:36:37;;;;;;;14.60;2.28;;;18.10;66.70;;;;;;5007568;28;20041;-84
2021/04/21 12:39:14;;;;;;;9.25;2.17;;;18.20;62.90;;;;;;5007708;28;20049;-84
2021/04/21 12:41:43;;;;;;;6.10;1.65;;;18.80;63.50;;;;;;5021783;28;20111;-84
2021/04/21 12:44:29;;;;;;;7.03;1.95;;;19.60;58.80;;;;;;5007052;28;20046;-84
2021/04/21 12:47:09;;;;;;;16.33;1.92;;;20.20;60.40;;;;;;5023914;28;20050;-86
2021/04/21 12:49:40;;;;;;;9.95;1.55;;;21.10;55.00;;;;;;5008328;28;20058;-84
2021/04/21 12:52:28;;;;;;;;;;;20.70;52.80;;;;;;5023395;28;20041;-84
2021/04/21 12:54:54;;;;;;;8.98;2.25;;;19.60;55.10;;;;;;5023128;28;20016;-85
2021/04/21 12:57:23;;;;;;;13.77;2.38;;;19.20;59.50;;;;;;5016775;28;20478;-85
2021/04/21 12:59:50;;;;;;;8.85;2.65;;;20.10;58.60;;;;;;5007310;28;20049;-85
2021/04/21 13:02:42;;;;;;;7.82;1.92;;;20.80;53.80;;;;;;5023623;28;20050;-85
2021/04/21 13:05:10;;;;;;;13.48;2.65;;;20.80;53.50;;;;;;5022398;28;20058;-85
2021/04/21 13:07:37;;;;;;;7.28;2.00;;;21.00;52.20;;;;;;5014628;28;20137;-85
2021/04/21 13:10:12;;;;;;;11.30;2.00;;;21.10;49.50;;;;;;5021866;28;20054;-85
2021/04/21 13:12:39;;;;;;;11.38;2.40;;;20.80;52.40;;;;;;5007061;28;20540;-85